createdAt,value
2022-09-01T00:00:49.655Z,63.9
2022-09-01T00:01:50.582Z,63.9
2022-09-01T00:02:51.683Z,64
2022-09-01T00:03:52.701Z,64
2022-09-01T00:04:53.588Z,64.1
2022-09-01T00:05:54.828Z,64.1
2022-09-01T00:06:56.595Z,64.1
2022-09-01T00:07:57.603Z,64.2
2022-09-01T00:08:58.600Z,64
2022-09-01T00:09:59.618Z,64.1
2022-09-01T00:11:00.631Z,64
2022-09-01T00:12:01.637Z,64
2022-09-01T00:13:02.825Z,63.9
2022-09-01T00:14:04.600Z,63.8
2022-09-01T00:15:05.616Z,63.7
2022-09-01T00:16:06.768Z,63.8
2022-09-01T00:17:08.617Z,63.8
2022-09-01T00:18:09.809Z,63.8
2022-09-01T00:19:11.663Z,63.7
2022-09-01T00:20:14.933Z,63.7
2022-09-01T00:21:13.640Z,63.7
2022-09-01T00:22:14.665Z,63.8
2022-09-01T00:23:15.617Z,63.8
2022-09-01T00:24:16.620Z,63.8
2022-09-01T00:25:17.619Z,63.8
2022-09-01T00:26:18.640Z,63.7
2022-09-01T00:27:19.629Z,63.7
2022-09-01T00:28:20.750Z,63.6
2022-09-01T00:29:21.643Z,63.5
2022-09-01T00:30:22.707Z,63.6
2022-09-01T00:31:23.714Z,63.6
2022-09-01T00:32:24.627Z,63.8
2022-09-01T00:33:25.626Z,63.6
2022-09-01T00:34:26.653Z,63.6
2022-09-01T00:35:27.639Z,63.7
2022-09-01T00:36:28.630Z,63.9
2022-09-01T00:37:29.665Z,63.9
2022-09-01T00:38:30.668Z,63.7
2022-09-01T00:39:31.633Z,63.7
2022-09-01T00:40:33.771Z,63.6
2022-09-01T00:41:34.662Z,63.6
2022-09-01T00:42:36.140Z,63.8
2022-09-01T00:43:38.015Z,63.9
2022-09-01T00:44:39.976Z,63.9
2022-09-01T00:45:42.114Z,63.9
2022-09-01T00:46:50.016Z,63.9
2022-09-01T00:47:45.955Z,63.9
2022-09-01T00:48:47.851Z,64
2022-09-01T00:49:49.865Z,64.1
2022-09-01T00:50:54.629Z,64.1
2022-09-01T00:51:54.022Z,64
2022-09-01T00:52:56.090Z,63.8
2022-09-01T00:53:57.937Z,63.9
2022-09-01T00:54:59.926Z,63.8
2022-09-01T00:56:01.884Z,63.8
2022-09-01T00:57:03.930Z,63.9
2022-09-01T00:58:05.849Z,63.7
2022-09-01T00:59:08.199Z,63.8
2022-09-01T01:00:09.907Z,63.9
2022-09-01T01:01:12.016Z,64
2022-09-01T01:02:14.003Z,64
2022-09-01T01:03:15.905Z,64.1
2022-09-01T01:04:17.927Z,64.3
2022-09-01T01:05:19.917Z,64.1
2022-09-01T01:06:21.985Z,64.2
2022-09-01T01:07:23.950Z,64.1
2022-09-01T01:08:26.038Z,64.1
2022-09-01T01:09:27.899Z,64.1
2022-09-01T01:10:30.124Z,64.2
2022-09-01T01:11:32.190Z,63.8
2022-09-01T01:12:33.848Z,63.7
2022-09-01T01:13:35.962Z,63.6
2022-09-01T01:14:37.870Z,63.6
2022-09-01T01:15:39.857Z,63.5
2022-09-01T01:16:42.192Z,63.6
2022-09-01T01:17:43.904Z,63.5
2022-09-01T01:18:46.076Z,63.7
2022-09-01T01:19:47.727Z,63.6
2022-09-01T01:20:48.722Z,63.5
2022-09-01T01:21:49.710Z,63.5
2022-09-01T01:22:50.721Z,63.5
2022-09-01T01:23:51.741Z,63.7
2022-09-01T01:24:52.715Z,63.7
2022-09-01T01:25:53.750Z,63.5
2022-09-01T01:26:54.714Z,63.4
2022-09-01T01:27:55.830Z,63.3
2022-09-01T01:28:57.899Z,63.4
2022-09-01T01:29:59.783Z,63.4
2022-09-01T01:31:00.781Z,63.3
2022-09-01T01:32:01.745Z,63.3
2022-09-01T01:33:02.728Z,63.2
2022-09-01T01:34:03.725Z,63.2
2022-09-01T01:35:04.778Z,63.2
2022-09-01T01:36:05.751Z,63.3
2022-09-01T01:37:06.739Z,63.4
2022-09-01T01:38:07.722Z,63.2
2022-09-01T01:39:08.741Z,63.2
2022-09-01T01:40:09.861Z,63.2
2022-09-01T01:41:10.734Z,63.1
2022-09-01T01:42:11.786Z,63.1
2022-09-01T01:43:12.767Z,63.3
2022-09-01T01:44:13.741Z,63.4
2022-09-01T01:45:14.753Z,63.4
2022-09-01T01:46:15.814Z,63.2
2022-09-01T01:47:16.810Z,63.1
2022-09-01T01:48:17.752Z,63.1
2022-09-01T01:49:18.740Z,63.1
2022-09-01T01:50:19.747Z,63
2022-09-01T01:51:20.747Z,63
2022-09-01T01:52:21.804Z,62.9
2022-09-01T01:53:22.771Z,62.9
2022-09-01T01:54:23.783Z,62.8
2022-09-01T01:55:24.765Z,62.6
2022-09-01T01:56:25.784Z,62.7
2022-09-01T01:57:26.793Z,62.7
2022-09-01T01:58:27.756Z,62.7
2022-09-01T01:59:28.768Z,62.6
2022-09-01T02:00:30.332Z,62.6
2022-09-01T02:01:30.826Z,62.8
2022-09-01T02:02:31.832Z,62.8
2022-09-01T02:03:32.832Z,62.9
2022-09-01T02:04:33.794Z,62.9
2022-09-01T02:05:34.776Z,63.1
2022-09-01T02:06:35.772Z,63.2
2022-09-01T02:07:36.776Z,63.1
2022-09-01T02:08:37.808Z,62.9
2022-09-01T02:09:38.773Z,63
2022-09-01T02:10:39.791Z,62.9
2022-09-01T02:11:40.775Z,62.9
2022-09-01T02:12:41.811Z,62.8
2022-09-01T02:13:42.869Z,62.8
2022-09-01T02:14:43.797Z,63
2022-09-01T02:15:44.796Z,63.1
2022-09-01T02:16:45.842Z,63.1
2022-09-01T02:17:46.812Z,63
2022-09-01T02:18:47.843Z,63
2022-09-01T02:19:48.798Z,62.9
2022-09-01T02:20:49.840Z,62.9
2022-09-01T02:21:50.812Z,63.2
2022-09-01T02:22:51.840Z,63.3
2022-09-01T02:23:52.829Z,63.3
2022-09-01T02:24:53.818Z,63.3
2022-09-01T02:26:14.939Z,63.2
2022-09-01T02:26:55.814Z,63.1
2022-09-01T02:27:56.814Z,63.2
2022-09-01T02:28:57.835Z,63.2
2022-09-01T02:29:58.827Z,63.4
2022-09-01T02:30:59.980Z,63.5
2022-09-01T02:32:00.801Z,63.6
2022-09-01T02:33:01.863Z,63.5
2022-09-01T02:34:02.866Z,63.6
2022-09-01T02:35:03.812Z,63.6
2022-09-01T02:36:04.818Z,63.7
2022-09-01T02:37:05.829Z,63.7
2022-09-01T02:38:06.811Z,63.7
2022-09-01T02:39:08.054Z,63.7
2022-09-01T02:40:08.951Z,63.6
2022-09-01T02:41:09.883Z,63.6
2022-09-01T02:42:10.836Z,63.6
2022-09-01T02:43:11.838Z,63.7
2022-09-01T02:44:12.822Z,63.7
2022-09-01T02:45:13.848Z,63.5
2022-09-01T02:46:14.971Z,63.5
2022-09-01T02:47:15.839Z,63.6
2022-09-01T02:48:16.901Z,63.6
2022-09-01T02:49:17.885Z,63.5
2022-09-01T02:50:18.877Z,63.3
2022-09-01T02:51:19.861Z,63.3
2022-09-01T02:52:20.856Z,63.3
2022-09-01T02:53:21.886Z,63.3
2022-09-01T02:54:22.923Z,63.1
2022-09-01T02:55:23.844Z,63
2022-09-01T02:56:25.183Z,62.9
2022-09-01T02:57:25.870Z,62.8
2022-09-01T02:58:27.160Z,62.8
2022-09-01T02:59:29.243Z,62.9
2022-09-01T03:00:31.242Z,62.9
2022-09-01T03:01:33.387Z,62.8
2022-09-01T03:02:35.254Z,62.6
2022-09-01T03:03:37.088Z,62.7
2022-09-01T03:04:39.358Z,62.7
2022-09-01T03:05:41.249Z,62.9
2022-09-01T03:06:43.177Z,63
2022-09-01T03:07:45.193Z,62.9
2022-09-01T03:08:48.125Z,62.8
2022-09-01T03:09:50.107Z,62.7
2022-09-01T03:10:52.302Z,62.7
2022-09-01T03:11:54.192Z,62.7
2022-09-01T03:12:56.099Z,62.6
2022-09-01T03:13:58.161Z,62.6
2022-09-01T03:15:00.280Z,62.8
2022-09-01T03:16:02.115Z,62.8
2022-09-01T03:17:04.155Z,62.8
2022-09-01T03:18:05.898Z,62.8
2022-09-01T03:19:07.471Z,62.9
2022-09-01T03:20:09.241Z,63.1
2022-09-01T03:21:11.103Z,63.2
2022-09-01T03:22:13.161Z,63.2
2022-09-01T03:23:15.119Z,63.2
2022-09-01T03:24:17.191Z,63.3
2022-09-01T03:25:19.198Z,63.2
2022-09-01T03:26:21.246Z,63.2
2022-09-01T03:27:23.261Z,63.2
2022-09-01T03:28:25.004Z,63.4
2022-09-01T03:29:26.178Z,63.4
2022-09-01T03:30:28.103Z,63.6
2022-09-01T03:31:31.101Z,63.7
2022-09-01T03:32:32.084Z,63.8
2022-09-01T03:33:34.105Z,63.8
2022-09-01T03:34:36.081Z,63.9
2022-09-01T03:35:38.295Z,64.1
2022-09-01T03:36:40.397Z,64.1
2022-09-01T03:37:42.479Z,64.1
2022-09-01T03:38:44.237Z,64.2
2022-09-01T03:39:44.952Z,64.2
2022-09-01T03:40:46.013Z,64.2
2022-09-01T03:41:46.978Z,64.3
2022-09-01T03:42:47.915Z,64.2
2022-09-01T03:43:48.954Z,64.1
2022-09-01T03:44:49.936Z,64.2
2022-09-01T03:45:50.996Z,64
2022-09-01T03:46:51.954Z,64.1
2022-09-01T03:47:52.936Z,64
2022-09-01T03:48:53.922Z,63.9
2022-09-01T03:49:54.943Z,64.2
2022-09-01T03:50:55.980Z,64.4
2022-09-01T03:51:56.967Z,64.4
2022-09-01T03:52:59.122Z,64.2
2022-09-01T03:54:00.987Z,64
2022-09-01T03:55:01.991Z,63.9
2022-09-01T03:56:02.952Z,63.9
2022-09-01T03:57:04.131Z,63.9
2022-09-01T03:58:05.967Z,63.9
2022-09-01T03:59:07.616Z,63.8
2022-09-01T04:00:08.025Z,63.6
2022-09-01T04:01:11.105Z,63.3
2022-09-01T04:02:11.037Z,63.5
2022-09-01T04:03:11.974Z,63.6
2022-09-01T04:04:12.982Z,63.6
2022-09-01T04:05:13.971Z,63.5
2022-09-01T04:06:14.968Z,63.6
2022-09-01T04:07:19.244Z,63.6
2022-09-01T04:08:16.976Z,63.6
2022-09-01T04:09:17.992Z,63.6
2022-09-01T04:10:18.962Z,63.8
2022-09-01T04:11:19.975Z,63.8
2022-09-01T04:12:20.985Z,63.6
2022-09-01T04:13:22.028Z,63.7
2022-09-01T04:14:23.017Z,63.7
2022-09-01T04:15:24.002Z,63.6
2022-09-01T04:16:25.042Z,63.7
2022-09-01T04:17:29.973Z,63.7
2022-09-01T04:18:27.009Z,63.6
2022-09-01T04:19:28.010Z,63.6
2022-09-01T04:20:28.988Z,63.7
2022-09-01T04:21:30.026Z,63.7
2022-09-01T04:22:30.988Z,63.6
2022-09-01T04:23:32.022Z,63.9
2022-09-01T04:24:33.030Z,63.9
2022-09-01T04:25:34.015Z,63.9
2022-09-01T04:26:35.000Z,64
2022-09-01T04:27:36.065Z,64
2022-09-01T04:28:37.007Z,63.9
2022-09-01T04:29:38.366Z,64
2022-09-01T04:30:39.040Z,63.9
2022-09-01T04:31:40.034Z,63.8
2022-09-01T04:32:41.032Z,64
2022-09-01T04:33:42.003Z,63.7
2022-09-01T04:34:43.039Z,63.8
2022-09-01T04:35:44.018Z,64
2022-09-01T04:36:45.026Z,64
2022-09-01T04:37:46.031Z,63.9
2022-09-01T04:38:47.022Z,63.5
2022-09-01T04:39:50.430Z,63.4
2022-09-01T04:40:49.087Z,63.4
2022-09-01T04:41:50.033Z,63.5
2022-09-01T04:42:51.049Z,63.6
2022-09-01T04:43:52.085Z,63.6
2022-09-01T04:44:53.053Z,63.4
2022-09-01T04:45:54.148Z,63.2
2022-09-01T04:46:55.030Z,63.4
2022-09-01T04:47:56.040Z,63.2
2022-09-01T04:48:57.027Z,63.2
2022-09-01T04:49:58.057Z,63.1
2022-09-01T04:50:59.048Z,63.2
2022-09-01T04:52:00.068Z,63.1
2022-09-01T04:53:01.031Z,63.1
2022-09-01T04:54:02.190Z,62.9
2022-09-01T04:55:04.081Z,62.7
2022-09-01T04:56:05.069Z,62.6
2022-09-01T04:57:06.128Z,62.8
2022-09-01T04:58:10.023Z,63.1
2022-09-01T04:59:08.088Z,63
2022-09-01T05:00:09.052Z,63
2022-09-01T05:01:10.159Z,62.7
2022-09-01T05:02:11.246Z,62.8
2022-09-01T05:03:13.067Z,62.9
2022-09-01T05:04:14.059Z,63
2022-09-01T05:05:15.060Z,62.9
2022-09-01T05:06:16.070Z,62.8
2022-09-01T05:07:17.108Z,62.7
2022-09-01T05:08:23.261Z,62.5
2022-09-01T05:09:19.068Z,62.6
2022-09-01T05:10:20.065Z,62.4
2022-09-01T05:11:21.090Z,62.6
2022-09-01T05:12:22.139Z,62.7
2022-09-01T05:13:23.069Z,62.9
2022-09-01T05:14:24.155Z,62.9
2022-09-01T05:15:25.090Z,62.9
2022-09-01T05:16:26.125Z,62.6
2022-09-01T05:17:27.071Z,62.5
2022-09-01T05:18:28.070Z,62.5
2022-09-01T05:19:29.127Z,62.5
2022-09-01T05:20:30.090Z,62.5
2022-09-01T05:21:31.078Z,62.4
2022-09-01T05:22:32.091Z,62.3
2022-09-01T05:23:33.114Z,62.1
2022-09-01T05:24:36.458Z,62.2
2022-09-01T05:25:35.094Z,62.1
2022-09-01T05:26:36.161Z,61.9
2022-09-01T05:27:37.133Z,61.7
2022-09-01T05:28:38.111Z,61.6
2022-09-01T05:29:39.103Z,61.5
2022-09-01T05:30:40.105Z,61.7
2022-09-01T05:31:41.200Z,61.4
2022-09-01T05:32:42.125Z,61.3
2022-09-01T05:33:43.113Z,61.2
2022-09-01T05:34:44.238Z,60.8
2022-09-01T05:35:46.102Z,60.3
2022-09-01T05:36:47.106Z,60.1
2022-09-01T05:37:48.109Z,59.8
2022-09-01T05:38:49.145Z,59.2
2022-09-01T05:39:50.312Z,58.3
2022-09-01T05:40:52.166Z,56.3
2022-09-01T05:41:53.125Z,54.7
2022-09-01T05:42:54.146Z,53.1
2022-09-01T05:43:59.547Z,51.6
2022-09-01T05:44:56.146Z,50.2
2022-09-01T05:46:06.418Z,48.7
2022-09-01T05:46:58.205Z,47.6
2022-09-01T05:47:59.125Z,46.3
2022-09-01T05:49:00.168Z,45.3
2022-09-01T05:50:01.137Z,45.2
2022-09-01T05:51:02.154Z,45.7
2022-09-01T05:52:03.159Z,46.8
2022-09-01T05:53:04.178Z,47.8
2022-09-01T05:54:05.152Z,48.9
2022-09-01T05:55:06.157Z,50.5
2022-09-01T05:56:07.171Z,51.9
2022-09-01T05:57:30.722Z,53.1
2022-09-01T05:58:09.139Z,54.2
2022-09-01T05:59:26.157Z,54.8
2022-09-01T06:00:11.333Z,55.2
2022-09-01T06:01:12.164Z,55.5
2022-09-01T06:02:13.557Z,55.1
2022-09-01T06:03:15.465Z,55
2022-09-01T06:04:16.144Z,54.8
2022-09-01T06:05:17.163Z,54.6
2022-09-01T06:06:18.158Z,54.4
2022-09-01T06:07:25.214Z,54.1
2022-09-01T06:08:20.178Z,54.3
2022-09-01T06:09:21.191Z,54.6
2022-09-01T06:10:22.244Z,54.9
2022-09-01T06:11:23.167Z,55.3
2022-09-01T06:12:24.208Z,55.6
2022-09-01T06:13:25.764Z,55.9
2022-09-01T06:14:26.202Z,56.1
2022-09-01T06:15:27.193Z,56.1
2022-09-01T06:16:28.229Z,56.3
2022-09-01T06:17:29.166Z,56.4
2022-09-01T06:18:30.179Z,56.6
2022-09-01T06:19:34.887Z,56.3
2022-09-01T06:20:32.193Z,56.5
2022-09-01T06:21:33.180Z,56.6
2022-09-01T06:22:34.209Z,56.5
2022-09-01T06:23:35.182Z,56.6
2022-09-01T06:24:36.214Z,56.2
2022-09-01T06:25:37.201Z,55.4
2022-09-01T06:26:38.208Z,55.3
2022-09-01T06:27:39.192Z,55.5
2022-09-01T06:28:40.245Z,55
2022-09-01T06:29:41.218Z,54.4
2022-09-01T06:30:42.220Z,53.4
2022-09-01T06:31:43.437Z,52.4
2022-09-01T06:32:44.236Z,51.5
2022-09-01T06:33:45.236Z,50.9
2022-09-01T06:34:46.229Z,50.5
2022-09-01T06:35:47.228Z,50.2
2022-09-01T06:36:48.195Z,50.1
2022-09-01T06:37:51.363Z,50.4
2022-09-01T06:38:55.135Z,50.4
2022-09-01T06:39:56.280Z,49.2
2022-09-01T06:40:57.284Z,47.8
2022-09-01T06:41:58.214Z,46
2022-09-01T06:42:59.210Z,44.6
2022-09-01T06:44:00.217Z,43.7
2022-09-01T06:45:01.222Z,43.9
2022-09-01T06:46:02.826Z,43.6
2022-09-01T06:47:04.424Z,43.1
2022-09-01T06:48:06.359Z,42.1
2022-09-01T06:49:08.225Z,41.9
2022-09-01T06:50:09.228Z,42.2
2022-09-01T06:51:20.074Z,41.9
2022-09-01T06:52:11.228Z,41.5
2022-09-01T06:54:13.960Z,40.6
2022-09-01T06:55:14.254Z,40.1
2022-09-01T06:56:15.233Z,39.6
2022-09-01T06:58:17.319Z,41.1
2022-09-01T06:59:18.248Z,41.9
2022-09-01T07:00:19.455Z,42.2
2022-09-01T07:01:20.687Z,42.4
2022-09-01T07:02:26.441Z,41.7
2022-09-01T07:03:24.264Z,40.8
2022-09-01T07:04:25.363Z,39.8
2022-09-01T07:08:29.277Z,35.8
2022-09-01T07:09:38.695Z,35.1
2022-09-01T07:10:31.304Z,34.8
2022-09-01T07:12:34.257Z,36.9
2022-09-01T07:13:34.395Z,38.6
2022-09-01T07:16:30.070Z,39.4
2022-09-01T07:16:41.779Z,38.8
2022-09-01T07:17:39.282Z,38.6
2022-09-01T07:18:40.307Z,38.1
2022-09-01T07:19:48.826Z,37.4
2022-09-01T07:22:06.588Z,35.5
2022-09-01T07:23:47.498Z,34.5
2022-09-01T07:24:46.324Z,33.5
2022-09-01T07:26:00.867Z,32.9
2022-09-01T07:26:48.314Z,32.6
2022-09-01T07:27:49.362Z,32.4
2022-09-01T07:28:50.326Z,32.4
2022-09-01T07:29:51.294Z,32.6
2022-09-01T07:30:52.304Z,32.2
2022-09-01T07:32:43.865Z,32
2022-09-01T07:32:54.311Z,31.8
2022-09-01T07:34:37.225Z,31.7
2022-09-01T07:34:56.388Z,31.9
2022-09-01T07:44:05.335Z,33.6
2022-09-01T07:48:09.400Z,32.4
2022-09-01T07:50:24.948Z,32.7
2022-09-01T07:52:13.366Z,33
2022-09-01T07:53:14.362Z,32.5
2022-09-01T07:54:15.422Z,32
2022-09-01T07:55:16.369Z,31.9
2022-09-01T07:56:17.339Z,31.6
2022-09-01T07:57:18.351Z,31.8
2022-09-01T07:58:19.353Z,32.1
2022-09-01T07:59:20.386Z,31.8
2022-09-01T08:00:21.351Z,32.1
2022-09-01T08:01:22.478Z,32.6
2022-09-01T08:02:23.397Z,33.4
2022-09-01T08:03:24.461Z,34
2022-09-01T08:04:25.373Z,34.3
2022-09-01T08:05:26.404Z,34
2022-09-01T08:06:27.952Z,33.8
2022-09-01T08:07:28.365Z,33.2
2022-09-01T08:08:29.706Z,32.8
2022-09-01T08:09:37.344Z,33
2022-09-01T08:10:31.378Z,32.3
2022-09-01T08:11:58.516Z,32.2
2022-09-01T08:12:33.388Z,31.4
2022-09-01T08:13:37.267Z,31.4
2022-09-01T08:14:35.375Z,31.2
2022-09-01T08:15:40.824Z,31.1
2022-09-01T08:16:51.841Z,30.7
2022-09-01T08:17:53.939Z,30.1
2022-09-01T08:18:54.532Z,30.4
2022-09-01T08:19:40.529Z,30.6
2022-09-01T08:20:42.434Z,31.7
2022-09-01T08:21:43.395Z,32
2022-09-01T08:22:44.402Z,31.4
2022-09-01T08:23:45.456Z,31.6
2022-09-01T08:24:46.373Z,32.1
2022-09-01T08:25:47.413Z,31.9
2022-09-01T08:26:48.424Z,32.1
2022-09-01T08:27:49.454Z,32
2022-09-01T08:28:54.886Z,32.6
2022-09-01T08:29:51.450Z,33.6
2022-09-01T08:30:52.924Z,34
2022-09-01T08:31:53.446Z,34.5
2022-09-01T08:32:54.463Z,34.9
2022-09-01T08:33:55.450Z,34.9
2022-09-01T08:34:56.448Z,34.7
2022-09-01T08:35:57.434Z,34.3
2022-09-01T08:36:58.454Z,34.9
2022-09-01T08:37:59.476Z,35.4
2022-09-01T08:39:00.462Z,35.4
2022-09-01T08:40:01.917Z,35.2
2022-09-01T08:41:02.528Z,35.4
2022-09-01T08:42:03.502Z,35.6
2022-09-01T08:43:04.477Z,35.1
2022-09-01T08:44:05.439Z,34.4
2022-09-01T08:45:06.926Z,33.5
2022-09-01T08:46:08.529Z,32.9
2022-09-01T08:47:11.971Z,32.8
2022-09-01T08:49:27.491Z,31.8
2022-09-01T08:50:12.515Z,31.8
2022-09-01T08:51:19.929Z,31.5
2022-09-01T08:52:17.472Z,31.4
2022-09-01T08:53:18.487Z,31.2
2022-09-01T08:54:20.097Z,30.8
2022-09-01T08:55:20.487Z,30.5
2022-09-01T08:56:21.464Z,30.3
2022-09-01T08:57:22.517Z,30.9
2022-09-01T08:58:23.557Z,30.6
2022-09-01T08:59:24.940Z,31.1
2022-09-01T09:00:25.471Z,31.6
2022-09-01T09:01:26.529Z,32.4
2022-09-01T09:02:27.515Z,32.3
2022-09-01T09:03:40.379Z,31.6
2022-09-01T09:04:29.494Z,31.2
2022-09-01T09:05:30.827Z,31.3
2022-09-01T09:06:32.480Z,31.8
2022-09-01T09:07:33.483Z,33
2022-09-01T09:08:34.483Z,32.8
2022-09-01T09:09:35.496Z,32.5
2022-09-01T09:10:36.511Z,32.5
2022-09-01T09:11:38.040Z,32.2
2022-09-01T09:12:48.842Z,31.4
2022-09-01T09:13:39.492Z,30.9
2022-09-01T09:14:40.490Z,30.1
2022-09-01T09:15:41.599Z,29.5
2022-09-01T09:16:42.493Z,29.7
2022-09-01T09:17:43.495Z,29.7
2022-09-01T09:18:57.474Z,29.5
2022-09-01T09:19:45.499Z,30.1
2022-09-01T09:20:46.538Z,30.6
2022-09-01T09:21:47.577Z,30.6
2022-09-01T09:22:48.561Z,30.8
2022-09-01T09:23:49.513Z,31.3
2022-09-01T09:24:50.572Z,32.1
2022-09-01T09:25:51.565Z,32.7
2022-09-01T09:26:52.558Z,33.6
2022-09-01T09:28:01.069Z,34.3
2022-09-01T09:28:54.517Z,35.2
2022-09-01T09:29:56.592Z,36
2022-09-01T09:30:57.948Z,36.8
2022-09-01T09:31:58.361Z,37.1
2022-09-01T09:33:59.885Z,35.5
2022-09-01T09:35:00.534Z,35.3
2022-09-01T09:36:01.579Z,34.4
2022-09-01T09:37:02.195Z,33.8
2022-09-01T09:38:03.563Z,33.3
2022-09-01T09:39:04.541Z,31.4
2022-09-01T09:40:05.597Z,30.7
2022-09-01T09:41:16.314Z,30.5
2022-09-01T09:42:07.570Z,30.4
2022-09-01T09:43:08.543Z,30.3
2022-09-01T09:44:11.328Z,30.6
2022-09-01T09:45:10.545Z,30.5
2022-09-01T09:46:23.076Z,30.4
2022-09-01T09:47:27.390Z,30.5
2022-09-01T09:48:13.539Z,30.2
2022-09-01T09:49:14.679Z,30.6
2022-09-01T09:50:15.573Z,30.7
2022-09-01T09:51:16.590Z,31
2022-09-01T09:52:17.615Z,31.4
2022-09-01T09:53:18.627Z,31.7
2022-09-01T09:54:19.577Z,32.1
2022-09-01T09:55:20.551Z,32.7
2022-09-01T09:56:21.582Z,32.5
2022-09-01T09:57:22.611Z,32.6
2022-09-01T09:58:23.563Z,33.5
2022-09-01T09:59:39.793Z,34
2022-09-01T10:00:25.889Z,34.1
2022-09-01T10:01:26.676Z,34.1
2022-09-01T10:02:27.762Z,34.4
2022-09-01T10:03:29.063Z,34.2
2022-09-01T10:04:29.689Z,33.7
2022-09-01T10:05:30.640Z,33.5
2022-09-01T10:06:31.658Z,33.2
2022-09-01T10:07:32.582Z,32.2
2022-09-01T10:08:33.646Z,31.6
2022-09-01T10:09:34.589Z,30.8
2022-09-01T10:10:35.600Z,30.3
2022-09-01T10:11:36.624Z,29.4
2022-09-01T10:12:37.596Z,29.3
2022-09-01T10:13:38.632Z,28.5
2022-09-01T10:14:54.670Z,28.8
2022-09-01T10:15:40.595Z,28.7
2022-09-01T10:16:41.715Z,28.8
2022-09-01T10:17:43.509Z,28.9
2022-09-01T10:18:43.643Z,28.9
2022-09-01T10:19:44.646Z,28.7
2022-09-01T10:20:45.615Z,28.5
2022-09-01T10:21:46.608Z,28.6
2022-09-01T10:22:48.323Z,29.6
2022-09-01T10:23:48.631Z,30.3
2022-09-01T10:24:50.229Z,30.9
2022-09-01T10:25:50.643Z,31.7
2022-09-01T10:26:51.618Z,32.3
2022-09-01T10:27:54.212Z,31.6
2022-09-01T10:28:53.633Z,30.7
2022-09-01T10:30:11.989Z,31.3
2022-09-01T10:30:55.705Z,31.5
2022-09-01T10:32:31.743Z,32
2022-09-01T10:33:02.281Z,32.4
2022-09-01T10:33:58.835Z,32.8
2022-09-01T10:34:59.945Z,34
2022-09-01T10:36:00.644Z,33.3
2022-09-01T10:37:01.661Z,32.8
2022-09-01T10:38:02.710Z,31.9
2022-09-01T10:39:06.449Z,31.1
2022-09-01T10:40:04.728Z,30.4
2022-09-01T10:41:05.718Z,30.7
2022-09-01T10:42:06.708Z,30.2
2022-09-01T10:43:12.371Z,29
2022-09-01T10:44:08.666Z,28.4
2022-09-01T10:45:09.203Z,28.6
2022-09-01T10:46:15.573Z,27.9
2022-09-01T10:47:16.283Z,27.1
2022-09-01T10:48:13.195Z,26.5
2022-09-01T10:49:13.668Z,26.2
2022-09-01T10:50:14.734Z,25.8
2022-09-01T10:51:18.995Z,26.3
2022-09-01T10:52:16.691Z,26.4
2022-09-01T10:53:17.695Z,26
2022-09-01T10:54:18.679Z,25.3
2022-09-01T10:55:24.413Z,25.1
2022-09-01T10:56:28.267Z,25.3
2022-09-01T10:57:26.765Z,25.6
2022-09-01T10:59:32.606Z,25.4
2022-09-01T11:00:40.365Z,24.6
2022-09-01T11:01:47.090Z,24.1
2022-09-01T11:02:28.323Z,24.3
2022-09-01T11:03:31.677Z,25.2
2022-09-01T11:04:28.818Z,26.7
2022-09-01T11:05:33.185Z,27
2022-09-01T11:06:34.099Z,26.8
2022-09-01T11:07:50.162Z,25.9
2022-09-01T11:08:32.732Z,26.5
2022-09-01T11:09:33.719Z,26.8
2022-09-01T11:10:35.296Z,26.7
2022-09-01T11:11:35.729Z,27.2
2022-09-01T11:12:36.751Z,27.6
2022-09-01T11:13:37.734Z,27.1
2022-09-01T11:14:38.080Z,26.6
2022-09-01T11:15:39.734Z,26.3
2022-09-01T11:16:49.162Z,26.3
2022-09-01T11:17:42.209Z,25.7
2022-09-01T11:18:43.725Z,25
2022-09-01T11:19:44.409Z,24.8
2022-09-01T11:20:45.821Z,24.8
2022-09-01T11:21:46.895Z,24.6
2022-09-01T11:22:47.757Z,24.4
2022-09-01T11:23:48.730Z,25
2022-09-01T11:24:54.529Z,25.1
2022-09-01T11:26:18.935Z,25
2022-09-01T11:26:51.732Z,24.1
2022-09-01T11:27:52.793Z,24.4
2022-09-01T11:28:53.740Z,24.2
2022-09-01T11:29:54.732Z,24.5
2022-09-01T11:30:55.788Z,24.8
2022-09-01T11:31:56.780Z,24.9
2022-09-01T11:32:57.770Z,24.8
2022-09-01T11:33:58.787Z,25
2022-09-01T11:34:59.756Z,25.7
2022-09-01T11:36:00.775Z,24.9
2022-09-01T11:37:01.765Z,24.9
2022-09-01T11:38:02.791Z,25.4
2022-09-01T11:39:03.764Z,25.7
2022-09-01T11:40:04.850Z,26.7
2022-09-01T11:41:05.783Z,27.3
2022-09-01T11:42:06.203Z,27.6
2022-09-01T11:43:09.734Z,28.1
2022-09-01T11:44:08.156Z,27.9
2022-09-01T11:45:09.774Z,27
2022-09-01T11:46:11.356Z,26
2022-09-01T11:47:14.473Z,25.9
2022-09-01T11:48:13.766Z,25.9
2022-09-01T11:49:14.802Z,25.7
2022-09-01T11:50:15.818Z,25.9
2022-09-01T11:51:16.809Z,26.1
2022-09-01T11:52:17.789Z,26.5
2022-09-01T11:53:18.830Z,26.6
2022-09-01T11:54:19.764Z,27.5
2022-09-01T11:55:20.799Z,27.5
2022-09-01T11:56:21.871Z,27.6
2022-09-01T11:57:22.829Z,27.4
2022-09-01T11:58:23.777Z,26.8
2022-09-01T11:59:24.783Z,26.2
2022-09-01T12:00:25.808Z,25.9
2022-09-01T12:01:26.233Z,26.4
2022-09-01T12:02:27.283Z,26.1
2022-09-01T12:03:28.303Z,25.7
2022-09-01T12:04:29.165Z,25.5
2022-09-01T12:05:30.808Z,25.3
2022-09-01T12:06:31.816Z,25.5
2022-09-01T12:07:32.827Z,26.1
2022-09-01T12:08:33.176Z,27
2022-09-01T12:09:34.817Z,27.2
2022-09-01T12:10:35.806Z,27.6
2022-09-01T12:11:36.868Z,27.1
2022-09-01T12:12:37.855Z,27.5
2022-09-01T12:13:38.822Z,27.9
2022-09-01T12:15:02.327Z,28.8
2022-09-01T12:15:50.375Z,29.5
2022-09-01T12:16:41.972Z,29.8
2022-09-01T12:17:42.808Z,30.3
2022-09-01T12:18:43.819Z,30.3
2022-09-01T12:19:44.811Z,29.7
2022-09-01T12:20:45.247Z,29.9
2022-09-01T12:21:46.899Z,29.4
2022-09-01T12:22:47.230Z,29
2022-09-01T12:23:48.248Z,29.4
2022-09-01T12:24:49.276Z,29.2
2022-09-01T12:25:50.205Z,28.8
2022-09-01T12:26:51.243Z,28.8
2022-09-01T12:27:52.859Z,28.2
2022-09-01T12:28:53.917Z,27.8
2022-09-01T12:29:54.850Z,27.7
2022-09-01T12:30:55.871Z,27.1
2022-09-01T12:31:56.910Z,27.6
2022-09-01T12:33:58.884Z,28.6
2022-09-01T12:34:59.857Z,29.1
2022-09-01T12:36:00.906Z,29.3
2022-09-01T12:37:01.923Z,29.5
2022-09-01T12:38:03.764Z,29.7
2022-09-01T12:39:03.980Z,30.4
2022-09-01T12:40:05.922Z,31.3
2022-09-01T12:41:06.867Z,31
2022-09-01T12:42:07.907Z,30.8
2022-09-01T12:43:08.883Z,30.7
2022-09-01T12:44:09.912Z,31
2022-09-01T12:45:10.885Z,30.7
2022-09-01T12:46:11.911Z,31.5
2022-09-01T12:47:12.908Z,31.5
2022-09-01T12:48:13.295Z,31.8
2022-09-01T12:50:17.081Z,30.6
2022-09-01T12:51:16.875Z,29.9
2022-09-01T12:52:19.835Z,29.3
2022-09-01T12:53:18.280Z,30.2
2022-09-01T12:54:21.251Z,30.7
2022-09-01T12:56:21.937Z,30
2022-09-01T12:57:22.927Z,29.4
2022-09-01T12:58:23.939Z,29.4
2022-09-01T12:59:29.933Z,29.8
2022-09-01T13:00:27.928Z,30.1
2022-09-01T13:01:29.149Z,30.3
2022-09-01T13:02:30.045Z,30.5
2022-09-01T13:03:30.900Z,30.9
2022-09-01T13:04:31.908Z,31.2
2022-09-01T13:05:37.494Z,32.1
2022-09-01T13:06:33.974Z,32.4
2022-09-01T13:07:34.966Z,32.7
2022-09-01T13:08:37.632Z,32.7
2022-09-01T13:09:37.943Z,32.5
2022-09-01T13:10:38.965Z,33.2
2022-09-01T13:12:40.943Z,33.5
2022-09-01T13:13:42.399Z,33.6
2022-09-01T13:14:43.002Z,34
2022-09-01T13:15:43.968Z,34
2022-09-01T13:16:44.997Z,34.1
2022-09-01T13:17:45.966Z,34.2
2022-09-01T13:19:48.975Z,35.1
2022-09-01T13:20:49.945Z,35.4
2022-09-01T13:21:50.969Z,34.8
2022-09-01T13:22:51.948Z,35.2
2022-09-01T13:23:52.966Z,34.8
2022-09-01T13:24:53.938Z,34.8
2022-09-01T13:25:54.949Z,34.4
2022-09-01T13:27:57.798Z,34.5
2022-09-01T13:28:58.993Z,34.1
2022-09-01T13:29:59.447Z,33.8
2022-09-01T13:32:18.633Z,31.5
2022-09-01T13:33:19.436Z,30.5
2022-09-01T13:34:21.602Z,30.4
2022-09-01T13:35:04.514Z,29
2022-09-01T13:36:42.317Z,28.3
2022-09-01T13:37:07.013Z,27.5
2022-09-01T13:38:08.020Z,27.1
2022-09-01T13:39:09.037Z,27.1
2022-09-01T13:40:10.287Z,27.5
2022-09-01T13:41:11.866Z,27.9
2022-09-01T13:42:13.003Z,28.1
2022-09-01T13:43:15.179Z,27.9
2022-09-01T13:44:17.097Z,28.5
2022-09-01T13:45:17.045Z,29.6
2022-09-01T13:46:18.032Z,29.9
2022-09-01T13:47:34.525Z,30.1
2022-09-01T13:48:20.030Z,30.1
2022-09-01T13:50:23.989Z,30.9
2022-09-01T13:51:24.002Z,31.8
2022-09-01T13:52:25.047Z,31.9
2022-09-01T13:53:26.053Z,32.4
2022-09-01T13:54:27.051Z,32.6
2022-09-01T13:55:28.035Z,32.8
2022-09-01T13:56:30.053Z,32.9
2022-09-01T13:57:31.509Z,33
2022-09-01T13:58:32.014Z,33.1
2022-09-01T13:59:33.007Z,33.1
2022-09-01T14:00:34.151Z,33
2022-09-01T14:01:36.605Z,32.7
2022-09-01T14:02:38.180Z,32.6
2022-09-01T14:03:41.327Z,31.6
2022-09-01T14:04:44.115Z,31.7
2022-09-01T14:05:47.188Z,31.2
2022-09-01T14:06:49.584Z,30.7
2022-09-01T14:07:51.283Z,30.3
2022-09-01T14:08:54.439Z,29.3
2022-09-01T14:09:56.694Z,29
2022-09-01T14:10:58.902Z,28.8
2022-09-01T14:12:00.392Z,27.4